createdAt,value
2024-01-25T00:02:17.028Z,101820.22
2024-01-25T00:04:47.466Z,101815.94
2024-01-25T00:07:17.934Z,101826.75
2024-01-25T00:09:50.912Z,101821.50
2024-01-25T00:12:21.302Z,101817.28
2024-01-25T00:14:52.403Z,101825.25
2024-01-25T00:17:22.841Z,101825.34
2024-01-25T00:19:53.493Z,101820.91
2024-01-25T00:22:24.001Z,101818.22
2024-01-25T00:24:57.009Z,101808.50
2024-01-25T00:27:27.505Z,101805.81
2024-01-25T00:29:58.031Z,101800.53
2024-01-25T00:32:28.674Z,101790.00
2024-01-25T00:35:00.196Z,101797.94
2024-01-25T00:37:31.727Z,101797.19
2024-01-25T00:40:05.771Z,101799.97
2024-01-25T00:42:40.873Z,101815.09
2024-01-25T00:45:13.449Z,101817.19
2024-01-25T00:47:45.093Z,101818.06
2024-01-25T00:50:18.868Z,101821.63
2024-01-25T00:52:50.343Z,101801.31
2024-01-25T00:55:24.635Z,101802.19
2024-01-25T00:57:56.340Z,101791.47
2024-01-25T01:00:28.786Z,101797.78
2024-01-25T01:03:04.403Z,101795.09
2024-01-25T01:05:36.037Z,101795.09
2024-01-25T01:08:08.013Z,101794.25
2024-01-25T01:10:41.014Z,101787.16
2024-01-25T01:13:11.434Z,101777.31
2024-01-25T01:15:41.829Z,101770.13
2024-01-25T01:18:12.462Z,101762.94
2024-01-25T01:20:42.881Z,101761.88
2024-01-25T01:23:13.208Z,101751.63
2024-01-25T01:25:46.133Z,101752.38
2024-01-25T01:28:16.750Z,101754.66
2024-01-25T01:30:47.290Z,101766.13
2024-01-25T01:33:18.089Z,101755.22
2024-01-25T01:35:49.806Z,101748.69
2024-01-25T01:38:20.593Z,101746.47
2024-01-25T01:40:53.503Z,101730.91
2024-01-25T01:43:24.689Z,101723.44
2024-01-25T01:45:55.157Z,101710.69
2024-01-25T01:48:25.688Z,101722.06
2024-01-25T01:50:56.427Z,101717.38
2024-01-25T01:53:26.851Z,101718.13
2024-01-25T01:56:00.041Z,101715.34
2024-01-25T01:58:32.081Z,101704.50
2024-01-25T02:01:04.445Z,101703.53
2024-01-25T02:03:35.137Z,101704.38
2024-01-25T02:06:06.381Z,101705.03
2024-01-25T02:08:37.200Z,101696.88
2024-01-25T02:11:10.413Z,101678.97
2024-01-25T02:13:40.722Z,101687.00
2024-01-25T02:16:12.500Z,101675.31
2024-01-25T02:18:43.998Z,101675.22
2024-01-25T02:21:14.833Z,101672.44
2024-01-25T02:23:47.816Z,101674.16
2024-01-25T02:26:18.185Z,101673.28
2024-01-25T02:28:48.524Z,101667.72
2024-01-25T02:31:19.021Z,101663.88
2024-01-25T02:33:49.630Z,101658.06
2024-01-25T02:36:20.503Z,101651.72
2024-01-25T02:38:53.418Z,101648.81
2024-01-25T02:41:23.748Z,101647.97
2024-01-25T02:43:54.104Z,101645.19
2024-01-25T02:46:24.467Z,101644.22
2024-01-25T02:48:55.146Z,101637.00
2024-01-25T02:51:25.597Z,101631.63
2024-01-25T02:53:58.545Z,101646.03
2024-01-25T02:56:34.752Z,101640.78
2024-01-25T02:59:05.250Z,101633.56
2024-01-25T03:01:44.120Z,101621.97
2024-01-25T03:04:14.792Z,101628.00
2024-01-25T03:06:45.501Z,101628.94
2024-01-25T03:09:18.570Z,101624.22
2024-01-25T03:11:48.869Z,101624.13
2024-01-25T03:14:19.414Z,101611.91
2024-01-25T03:16:49.771Z,101613.38
2024-01-25T03:19:20.264Z,101605.13
2024-01-25T03:21:50.873Z,101596.84
2024-01-25T03:24:23.919Z,101594.94
2024-01-25T03:26:54.290Z,101585.91
2024-01-25T03:29:24.830Z,101589.13
2024-01-25T03:31:55.140Z,101585.34
2024-01-25T03:34:25.625Z,101581.34
2024-01-25T03:36:56.056Z,101579.22
2024-01-25T03:39:29.359Z,101569.09
2024-01-25T03:41:59.896Z,101574.88
2024-01-25T03:44:30.393Z,101568.28
2024-01-25T03:47:00.819Z,101565.91
2024-01-25T03:49:31.841Z,101548.59
2024-01-25T03:52:02.215Z,101544.72
2024-01-25T03:54:35.412Z,101542.66
2024-01-25T03:57:05.902Z,101544.25
2024-01-25T03:59:36.297Z,101559.19
2024-01-25T04:02:06.909Z,101552.59
2024-01-25T04:04:37.520Z,101539.91
2024-01-25T04:07:08.322Z,101536.38
2024-01-25T04:09:41.536Z,101533.44
2024-01-25T04:12:12.546Z,101536.97
2024-01-25T04:14:42.870Z,101543.59
2024-01-25T04:17:13.253Z,101535.31
2024-01-25T04:19:43.702Z,101530.81
2024-01-25T04:22:14.162Z,101517.13
2024-01-25T04:24:50.017Z,101514.19
2024-01-25T04:27:20.620Z,101518.50
2024-01-25T04:29:51.055Z,101526.31
2024-01-25T04:32:21.685Z,101505.53
2024-01-25T04:34:52.156Z,101498.25
2024-01-25T04:37:22.648Z,101490.03
2024-01-25T04:39:55.703Z,101486.28
2024-01-25T04:42:26.293Z,101476.25
2024-01-25T04:44:56.723Z,101477.72
2024-01-25T04:47:27.162Z,101480.28
2024-01-25T04:49:57.633Z,101472.97
2024-01-25T04:52:28.019Z,101477.22
2024-01-25T04:55:01.065Z,101478.84
2024-01-25T04:57:31.521Z,101473.31
2024-01-25T05:00:01.881Z,101466.97
2024-01-25T05:02:32.213Z,101459.41
2024-01-25T05:05:02.687Z,101455.25
2024-01-25T05:07:33.233Z,101454.03
2024-01-25T05:10:06.493Z,101453.66
2024-01-25T05:12:36.916Z,101451.59
2024-01-25T05:15:08.367Z,101452.19
2024-01-25T05:17:38.748Z,101445.72
2024-01-25T05:20:11.781Z,101452.56
2024-01-25T05:22:43.343Z,101446.97
2024-01-25T05:25:16.627Z,101445.50
2024-01-25T05:27:47.060Z,101441.34
2024-01-25T05:30:19.033Z,101438.97
2024-01-25T05:32:51.000Z,101429.56
2024-01-25T05:35:22.156Z,101430.03
2024-01-25T05:37:52.768Z,101427.84
2024-01-25T05:40:25.742Z,101424.13
2024-01-25T05:42:56.599Z,101411.41
2024-01-25T05:45:27.644Z,101418.50
2024-01-25T05:47:58.096Z,101420.94
2024-01-25T05:50:28.586Z,101409.06
2024-01-25T05:52:58.933Z,101413.47
2024-01-25T05:55:32.253Z,101406.84
2024-01-25T05:58:02.772Z,101393.25
2024-01-25T06:00:33.273Z,101402.31
2024-01-25T06:03:03.687Z,101405.75
2024-01-25T06:05:34.251Z,101398.50
2024-01-25T06:08:04.884Z,101401.94
2024-01-25T06:10:37.918Z,101400.22
2024-01-25T06:13:08.750Z,101396.66
2024-01-25T06:15:40.107Z,101401.81
2024-01-25T06:18:10.699Z,101392.75
2024-01-25T06:20:41.295Z,101395.44
2024-01-25T06:23:11.658Z,101391.75
2024-01-25T06:25:44.582Z,101393.47
2024-01-25T06:28:15.006Z,101377.03
2024-01-25T06:30:45.453Z,101376.31
2024-01-25T06:33:15.849Z,101378.88
2024-01-25T06:35:46.394Z,101375.22
2024-01-25T06:38:16.917Z,101375.06
2024-01-25T06:40:49.885Z,101362.47
2024-01-25T06:43:22.415Z,101358.53
2024-01-25T06:45:52.886Z,101353.84
2024-01-25T06:48:23.396Z,101358.41
2024-01-25T06:50:53.980Z,101355.44
2024-01-25T06:53:25.425Z,101352.84
2024-01-25T06:55:58.452Z,101340.88
2024-01-25T06:58:28.962Z,101339.72
2024-01-25T07:01:00.528Z,101326.72
2024-01-25T07:03:31.730Z,101318.34
2024-01-25T07:06:03.514Z,101328.16
2024-01-25T07:08:33.981Z,101324.22
2024-01-25T07:11:07.205Z,101328.47
2024-01-25T07:13:37.761Z,101325.41
2024-01-25T07:16:09.495Z,101329.53
2024-01-25T07:18:40.156Z,101326.72
2024-01-25T07:21:10.598Z,101331.69
2024-01-25T07:23:40.966Z,101327.16
2024-01-25T07:26:13.861Z,101316.09
2024-01-25T07:28:44.185Z,101315.25
2024-01-25T07:31:14.629Z,101307.03
2024-01-25T07:33:45.180Z,101313.16
2024-01-25T07:36:17.709Z,101320.81
2024-01-25T07:38:48.481Z,101315.72
2024-01-25T07:41:21.517Z,101320.09
2024-01-25T07:43:56.506Z,101318.41
2024-01-25T07:46:28.227Z,101316.69
2024-01-25T07:48:58.741Z,101312.00
2024-01-25T07:51:30.305Z,101309.31
2024-01-25T07:54:01.044Z,101304.94
2024-01-25T07:56:33.998Z,101298.53
2024-01-25T07:59:04.341Z,101292.00
2024-01-25T08:01:35.100Z,101283.78
2024-01-25T08:04:05.575Z,101294.31
2024-01-25T08:06:36.194Z,101289.19
2024-01-25T08:09:07.110Z,101295.16
2024-01-25T08:11:40.102Z,101296.28
2024-01-25T08:14:10.549Z,101288.91
2024-01-25T08:16:41.140Z,101288.78
2024-01-25T08:19:11.645Z,101284.97
2024-01-25T08:21:42.303Z,101269.03
2024-01-25T08:24:13.059Z,101267.94
2024-01-25T08:26:46.092Z,101272.31
2024-01-25T08:29:16.501Z,101276.75
2024-01-25T08:31:47.582Z,101289.22
2024-01-25T08:34:18.171Z,101290.09
2024-01-25T08:36:48.725Z,101281.88
2024-01-25T08:39:19.108Z,101275.47
2024-01-25T08:41:52.157Z,101277.19
2024-01-25T08:44:22.570Z,101280.47
2024-01-25T08:46:52.915Z,101287.69
2024-01-25T08:49:23.411Z,101280.19
2024-01-25T08:51:53.936Z,101274.78
2024-01-25T08:54:24.369Z,101276.09
2024-01-25T08:56:57.360Z,101265.28
2024-01-25T08:59:28.086Z,101262.31
2024-01-25T09:01:58.627Z,101262.91
2024-01-25T09:04:29.143Z,101260.91
2024-01-25T09:06:59.631Z,101260.91
2024-01-25T09:09:30.163Z,101255.41
2024-01-25T09:12:03.109Z,101256.09
2024-01-25T09:14:33.729Z,101246.16
2024-01-25T09:17:04.085Z,101242.19
2024-01-25T09:19:34.697Z,101241.03
2024-01-25T09:22:06.113Z,101237.38
2024-01-25T09:24:37.717Z,101252.56
2024-01-25T09:27:10.828Z,101250.84
2024-01-25T09:29:42.457Z,101248.47
2024-01-25T09:32:13.703Z,101252.59
2024-01-25T09:34:44.326Z,101238.78
2024-01-25T09:37:16.283Z,101232.28
2024-01-25T09:39:47.051Z,101231.13
2024-01-25T09:42:20.210Z,101232.56
2024-01-25T09:44:50.581Z,101218.66
2024-01-25T09:47:23.014Z,101223.16
2024-01-25T09:49:53.653Z,101215.50
2024-01-25T09:52:29.039Z,101211.66
2024-01-25T09:55:00.553Z,101215.50
2024-01-25T09:57:36.008Z,101213.09
2024-01-25T10:00:13.323Z,101210.97
2024-01-25T10:02:43.832Z,101206.97
2024-01-25T10:05:14.279Z,101214.22
2024-01-25T10:07:46.389Z,101207.78
2024-01-25T10:10:18.215Z,101215.78
2024-01-25T10:12:51.221Z,101208.09
2024-01-25T10:15:21.630Z,101204.09
2024-01-25T10:18:07.092Z,101203.50
2024-01-25T10:20:42.993Z,101200.53
2024-01-25T10:23:14.147Z,101197.66
2024-01-25T10:25:44.707Z,101193.38
2024-01-25T10:28:18.054Z,101198.47
2024-01-25T10:30:48.671Z,101203.47
2024-01-25T10:33:21.005Z,101208.56
2024-01-25T10:35:52.802Z,101202.84
2024-01-25T10:38:23.295Z,101201.28
2024-01-25T10:40:54.584Z,101195.72
2024-01-25T10:43:27.771Z,101200.81
2024-01-25T10:46:01.941Z,101188.41
2024-01-25T10:48:35.705Z,101187.66
2024-01-25T10:51:06.864Z,101187.50
2024-01-25T10:53:38.572Z,101193.63
2024-01-25T10:56:10.695Z,101188.47
2024-01-25T10:58:45.811Z,101188.84
2024-01-25T11:01:16.931Z,101184.81
2024-01-25T11:03:50.504Z,101185.22
2024-01-25T11:06:25.215Z,101180.06
2024-01-25T11:08:55.672Z,101168.63
2024-01-25T11:11:26.436Z,101171.75
2024-01-25T11:14:00.499Z,101162.31
2024-01-25T11:16:36.008Z,101163.22
2024-01-25T11:19:09.582Z,101162.06
2024-01-25T11:21:45.683Z,101160.44
2024-01-25T11:24:20.045Z,101141.00
2024-01-25T11:26:51.190Z,101145.25
2024-01-25T11:29:25.882Z,101146.34
2024-01-25T11:31:57.531Z,101142.31
2024-01-25T11:34:27.940Z,101135.75
2024-01-25T11:36:59.190Z,101132.09
2024-01-25T11:39:29.464Z,101128.84
2024-01-25T11:41:59.805Z,101127.19
2024-01-25T11:44:32.677Z,101125.66
2024-01-25T11:47:03.008Z,101119.06
2024-01-25T11:49:33.438Z,101108.22
2024-01-25T11:52:03.960Z,101105.34
2024-01-25T11:54:34.334Z,101105.91
2024-01-25T11:57:04.716Z,101107.75
2024-01-25T11:59:38.155Z,101100.69
2024-01-25T12:02:09.088Z,101099.69
2024-01-25T12:04:40.161Z,101110.09
2024-01-25T12:07:11.521Z,101094.81
2024-01-25T12:09:41.883Z,101105.34
2024-01-25T12:12:13.993Z,101109.44
2024-01-25T12:14:48.027Z,101103.88
2024-01-25T12:17:18.314Z,101093.03
2024-01-25T12:19:48.735Z,101089.47
2024-01-25T12:22:25.392Z,101080.31
2024-01-25T12:25:00.730Z,101080.97
2024-01-25T12:27:34.044Z,101079.47
2024-01-25T12:30:08.172Z,101071.81
2024-01-25T12:32:38.632Z,101056.88
2024-01-25T12:35:10.799Z,101054.88
2024-01-25T12:37:41.367Z,101054.25
2024-01-25T12:40:13.110Z,101041.38
2024-01-25T12:42:44.270Z,101049.69
2024-01-25T12:45:20.537Z,101046.81
2024-01-25T12:47:51.187Z,101035.47
2024-01-25T12:50:21.582Z,101025.31
2024-01-25T12:52:52.379Z,101009.94
2024-01-25T12:55:23.165Z,101010.63
2024-01-25T12:57:55.713Z,101011.16
2024-01-25T13:00:29.106Z,101019.66
2024-01-25T13:02:59.374Z,101019.81
2024-01-25T13:05:30.050Z,101017.41
2024-01-25T13:08:00.736Z,101008.59
2024-01-25T13:10:31.014Z,100998.63
2024-01-25T13:13:01.770Z,101003.00
2024-01-25T13:15:34.670Z,100997.59
2024-01-25T13:18:05.383Z,101005.72
2024-01-25T13:20:35.668Z,101001.16
2024-01-25T13:23:06.157Z,101007.59
2024-01-25T13:25:36.382Z,101009.63
2024-01-25T13:28:06.987Z,100997.13
2024-01-25T13:30:39.881Z,100991.16
2024-01-25T13:33:10.286Z,100991.19
2024-01-25T13:35:40.593Z,100978.31
2024-01-25T13:38:15.816Z,100971.88
2024-01-25T13:40:46.325Z,100971.69
2024-01-25T13:43:17.564Z,100961.53
2024-01-25T13:45:50.645Z,100959.69
2024-01-25T13:48:22.142Z,100946.94
2024-01-25T13:50:52.479Z,100949.34
2024-01-25T13:53:22.772Z,100950.50
2024-01-25T13:55:53.031Z,100941.22
2024-01-25T13:58:23.257Z,100942.56
2024-01-25T14:00:56.233Z,100942.22
2024-01-25T14:03:26.731Z,100925.75
2024-01-25T14:05:58.593Z,100923.22
2024-01-25T14:08:29.087Z,100927.63
2024-01-25T14:10:59.564Z,100924.75
2024-01-25T14:13:29.833Z,100920.34
2024-01-25T14:16:03.101Z,100909.31
2024-01-25T14:18:40.036Z,100913.91
2024-01-25T14:21:11.309Z,100918.31
2024-01-25T14:23:42.210Z,100915.44
2024-01-25T14:26:12.542Z,100913.56
2024-01-25T14:28:43.058Z,100912.38
2024-01-25T14:31:15.996Z,100911.19
2024-01-25T14:33:46.907Z,100900.69
2024-01-25T14:36:18.078Z,100890.53
2024-01-25T14:38:48.415Z,100892.72
2024-01-25T14:41:18.864Z,100888.81
2024-01-25T14:43:50.239Z,100906.28
2024-01-25T14:46:23.054Z,100901.88
2024-01-25T14:48:53.384Z,100900.34
2024-01-25T14:51:23.875Z,100891.38
2024-01-25T14:53:54.158Z,100886.63
2024-01-25T14:56:24.420Z,100878.50
2024-01-25T14:58:54.657Z,100865.09
2024-01-25T15:01:30.352Z,100866.59
2024-01-25T15:04:00.953Z,100868.97
2024-01-25T15:06:31.412Z,100861.53
2024-01-25T15:09:01.761Z,100872.19
2024-01-25T15:11:32.036Z,100865.94
2024-01-25T15:14:02.270Z,100856.28
2024-01-25T15:16:35.724Z,100862.53
2024-01-25T15:19:06.288Z,100860.16
2024-01-25T15:21:36.829Z,100851.69
2024-01-25T15:24:08.081Z,100853.41
2024-01-25T15:26:38.558Z,100854.72
2024-01-25T15:29:08.824Z,100846.28
2024-01-25T15:31:41.819Z,100851.53
2024-01-25T15:34:12.241Z,100842.19
2024-01-25T15:36:45.119Z,100841.19
2024-01-25T15:39:15.888Z,100844.91
2024-01-25T15:41:50.623Z,100842.88
2024-01-25T15:44:20.921Z,100837.13
2024-01-25T15:46:53.983Z,100838.47
2024-01-25T15:49:24.547Z,100829.31
2024-01-25T15:51:54.900Z,100827.25
2024-01-25T15:54:25.261Z,100821.16
2024-01-25T15:56:55.844Z,100815.75
2024-01-25T15:59:26.073Z,100815.91
2024-01-25T16:01:58.971Z,100805.56
2024-01-25T16:04:29.353Z,100808.28
2024-01-25T16:06:59.720Z,100808.47
2024-01-25T16:09:29.986Z,100812.69
2024-01-25T16:12:00.377Z,100813.53
2024-01-25T16:14:30.597Z,100802.16
2024-01-25T16:17:03.497Z,100819.47
2024-01-25T16:19:34.050Z,100816.91
2024-01-25T16:22:04.455Z,100819.13
2024-01-25T16:24:34.744Z,100808.94
2024-01-25T16:27:05.488Z,100807.25
2024-01-25T16:29:35.742Z,100819.31
2024-01-25T16:32:10.088Z,100813.03
2024-01-25T16:34:40.629Z,100808.47
2024-01-25T16:37:10.934Z,100803.38
2024-01-25T16:39:41.351Z,100793.72
2024-01-25T16:42:11.696Z,100789.31
2024-01-25T16:44:41.924Z,100801.16
2024-01-25T16:47:15.531Z,100796.09
2024-01-25T16:49:45.869Z,100795.75
2024-01-25T16:52:16.144Z,100798.44
2024-01-25T16:54:46.514Z,100804.91
2024-01-25T16:57:16.990Z,100797.28
2024-01-25T16:59:47.229Z,100806.94
2024-01-25T17:02:20.042Z,100784.22
2024-01-25T17:04:50.457Z,100798.13
2024-01-25T17:07:20.853Z,100793.03
2024-01-25T17:09:51.421Z,100786.41
2024-01-25T17:12:23.096Z,100774.06
2024-01-25T17:14:53.486Z,100775.94
2024-01-25T17:17:27.907Z,100764.25
2024-01-25T17:20:00.073Z,100764.06
2024-01-25T17:22:31.492Z,100780.69
2024-01-25T17:25:01.867Z,100786.94
2024-01-25T17:27:32.247Z,100797.28
2024-01-25T17:30:02.497Z,100786.63
2024-01-25T17:32:35.430Z,100773.38
2024-01-25T17:35:07.154Z,100782.38
2024-01-25T17:37:37.499Z,100787.97
2024-01-25T17:40:09.560Z,100773.72
2024-01-25T17:42:39.881Z,100777.13
2024-01-25T17:45:12.330Z,100777.97
2024-01-25T17:47:45.280Z,100778.31
2024-01-25T17:50:15.763Z,100787.97
2024-01-25T17:52:46.075Z,100784.25
2024-01-25T17:55:16.602Z,100782.38
2024-01-25T17:57:46.994Z,100773.72
2024-01-25T18:00:19.710Z,100772.88
2024-01-25T18:02:52.679Z,100771.72
2024-01-25T18:05:22.967Z,100762.53
2024-01-25T18:07:53.373Z,100773.38
2024-01-25T18:10:23.636Z,100751.69
2024-01-25T18:12:53.989Z,100750.50
2024-01-25T18:15:24.278Z,100746.94
2024-01-25T18:17:57.117Z,100743.22
2024-01-25T18:20:27.580Z,100751.88
2024-01-25T18:22:57.870Z,100744.91
2024-01-25T18:25:28.090Z,100732.88
2024-01-25T18:28:00.874Z,100741.88
2024-01-25T18:30:31.238Z,100727.13
2024-01-25T18:33:04.343Z,100723.38
2024-01-25T18:35:34.713Z,100712.06
2024-01-25T18:38:04.961Z,100695.09
2024-01-25T18:40:36.469Z,100689.66
2024-01-25T18:43:07.452Z,100684.75
2024-01-25T18:45:37.858Z,100681.88
2024-01-25T18:48:12.465Z,100688.00
2024-01-25T18:50:43.617Z,100694.09
2024-01-25T18:53:13.913Z,100690.84
2024-01-25T18:55:45.592Z,100693.56
2024-01-25T18:58:16.963Z,100681.72
2024-01-25T19:00:48.653Z,100680.19
2024-01-25T19:03:22.668Z,100690.84
2024-01-25T19:05:56.819Z,100684.59
2024-01-25T19:08:28.870Z,100674.44
2024-01-25T19:11:00.712Z,100664.94
2024-01-25T19:13:31.271Z,100676.47
2024-01-25T19:16:01.571Z,100669.84
2024-01-25T19:18:34.547Z,100666.97
2024-01-25T19:21:05.781Z,100673.72
2024-01-25T19:23:36.836Z,100660.16
2024-01-25T19:26:07.559Z,100661.19
2024-01-25T19:28:39.714Z,100652.69
2024-01-25T19:31:09.984Z,100642.38
2024-01-25T19:33:43.168Z,100638.63
2024-01-25T19:36:13.737Z,100640.34
2024-01-25T19:38:44.787Z,100629.00
2024-01-25T19:41:15.300Z,100633.41
2024-01-25T19:43:45.578Z,100640.19
2024-01-25T19:46:16.523Z,100635.25
2024-01-25T19:48:50.275Z,100635.75
2024-01-25T19:51:20.647Z,100622.19
2024-01-25T19:53:51.014Z,100634.38
2024-01-25T19:56:21.525Z,100626.75
2024-01-25T19:58:54.688Z,100618.78
2024-01-25T20:01:26.243Z,100616.72
2024-01-25T20:04:00.613Z,100623.69
2024-01-25T20:06:32.060Z,100611.31
2024-01-25T20:09:02.403Z,100605.19
2024-01-25T20:11:32.745Z,100605.84
2024-01-25T20:14:03.175Z,100602.47
2024-01-25T20:16:33.483Z,100599.78
2024-01-25T20:19:06.672Z,100585.34
2024-01-25T20:21:37.062Z,100585.66
2024-01-25T20:24:08.011Z,100586.88
2024-01-25T20:26:38.325Z,100584.88
2024-01-25T20:29:08.676Z,100578.41
2024-01-25T20:31:39.038Z,100576.03
2024-01-25T20:34:12.069Z,100569.94
2024-01-25T20:36:42.419Z,100570.59
2024-01-25T20:39:12.817Z,100561.41
2024-01-25T20:41:43.156Z,100550.78
2024-01-25T20:44:13.515Z,100545.13
2024-01-25T20:46:43.852Z,100541.94
2024-01-25T20:49:16.915Z,100541.41
2024-01-25T20:51:47.402Z,100542.25
2024-01-25T20:54:17.854Z,100536.00
2024-01-25T20:56:49.164Z,100532.06
2024-01-25T20:59:20.386Z,100524.78
2024-01-25T21:01:52.328Z,100511.22
2024-01-25T21:04:26.869Z,100498.84
2024-01-25T21:06:58.109Z,100489.03
2024-01-25T21:09:29.562Z,100487.66
2024-01-25T21:12:00.927Z,100471.06
2024-01-25T21:14:33.281Z,100465.81
2024-01-25T21:17:03.660Z,100471.63
2024-01-25T21:19:36.812Z,100463.16
2024-01-25T21:22:07.838Z,100467.22
2024-01-25T21:24:38.233Z,100455.69
2024-01-25T21:27:09.114Z,100444.84
2024-01-25T21:29:39.721Z,100446.91
2024-01-25T21:32:10.606Z,100449.63
2024-01-25T21:34:43.866Z,100436.22
2024-01-25T21:37:14.311Z,100434.34
2024-01-25T21:39:44.704Z,100444.84
2024-01-25T21:42:15.078Z,100434.84
2024-01-25T21:44:47.050Z,100440.75
2024-01-25T21:47:17.620Z,100436.16
2024-01-25T21:49:51.282Z,100418.69
2024-01-25T21:52:22.692Z,100424.78
2024-01-25T21:54:53.386Z,100431.22
2024-01-25T21:57:23.908Z,100421.91
2024-01-25T21:59:54.595Z,100424.59
2024-01-25T22:02:25.068Z,100423.88
2024-01-25T22:04:58.056Z,100407.25
2024-01-25T22:07:28.960Z,100403.88
2024-01-25T22:09:59.416Z,100400.94
2024-01-25T22:12:29.851Z,100395.16
2024-01-25T22:15:00.256Z,100385.16
2024-01-25T22:17:30.616Z,100377.47
2024-01-25T22:20:03.761Z,100351.41
2024-01-25T22:22:34.391Z,100332.59
2024-01-25T22:25:05.039Z,100333.72
2024-01-25T22:27:35.505Z,100346.81
2024-01-25T22:30:06.028Z,100337.84
2024-01-25T22:32:36.399Z,100329.03
2024-01-25T22:35:10.107Z,100336.78
2024-01-25T22:37:40.528Z,100336.78
2024-01-25T22:40:13.245Z,100320.91
2024-01-25T22:42:43.685Z,100304.63
2024-01-25T22:45:14.314Z,100302.56
2024-01-25T22:47:44.740Z,100304.22
2024-01-25T22:50:18.005Z,100300.38
2024-01-25T22:52:48.406Z,100297.13
2024-01-25T22:55:19.057Z,100282.69
2024-01-25T22:57:49.899Z,100289.81
2024-01-25T23:00:25.151Z,100291.72
2024-01-25T23:02:55.757Z,100294.59
2024-01-25T23:05:28.943Z,100278.97
2024-01-25T23:07:59.297Z,100275.78
2024-01-25T23:10:29.682Z,100273.38
2024-01-25T23:13:00.757Z,100279.34
2024-01-25T23:15:31.278Z,100268.31
2024-01-25T23:18:01.987Z,100267.28
2024-01-25T23:20:36.362Z,100274.97
2024-01-25T23:23:08.248Z,100267.00
2024-01-25T23:25:38.636Z,100256.44
2024-01-25T23:28:09.700Z,100255.56
2024-01-25T23:30:40.171Z,100260.16
2024-01-25T23:33:11.203Z,100264.75
2024-01-25T23:35:45.139Z,100267.00
2024-01-25T23:38:15.560Z,100269.53
2024-01-25T23:40:46.871Z,100259.69
2024-01-25T23:43:17.345Z,100257.16
2024-01-25T23:45:48.031Z,100258.69
2024-01-25T23:48:19.173Z,100249.50
2024-01-25T23:50:52.670Z,100243.88
2024-01-25T23:53:23.038Z,100248.66
2024-01-25T23:55:53.573Z,100242.88
2024-01-25T23:58:24.180Z,100236.50
